Time;durP1;ratioP1;P1;durP2;ratioP2;P2;SDS_P1;SDS_P2;PMS_P1;PMS_P2;Temp;Humidity;BMP_temperature;BMP_pressure;BME280_temperature;BME280_humidity;BME280_pressure;Samples;Min_cycle;Max_cycle;Signal;HPM_P1;HPM_P2
2023/02/23 00:03:57;;;;;;;25.20;10.50;;;;;;;-0.21;98.15;100768.44;219241;1271;139535;-88
2023/02/23 00:09:00;;;;;;;24.60;11.20;;;;;;;-0.22;98.05;100760.81;219516;1269;139227;-90
2023/02/23 00:14:01;;;;;;;22.80;10.10;;;;;;;-0.23;98.31;100756.70;219702;1269;97950;-88
2023/02/23 00:19:01;;;;;;;24.30;9.30;;;;;;;-0.25;98.27;100747.10;218812;1271;139047;-89
2023/02/23 00:24:08;;;;;;;25.50;11.00;;;;;;;-0.27;97.91;100745.09;219399;1268;138901;-91
2023/02/23 00:29:17;;;;;;;22.20;9.80;;;;;;;-0.29;97.87;100744.69;218832;1271;139209;-91
2023/02/23 00:34:22;;;;;;;26.10;10.20;;;;;;;-0.32;98.31;100743.05;219370;1267;139288;-88
2023/02/23 00:39:27;;;;;;;25.30;10.80;;;;;;;-0.33;98.19;100742.48;218736;1271;139718;-90
2023/02/23 00:44:28;;;;;;;23.80;10.20;;;;;;;-0.36;98.19;100741.23;220333;1269;137966;-89
2023/02/23 00:49:29;;;;;;;26.60;10.80;;;;;;;-0.38;98.12;100742.62;219335;1271;138792;-90
2023/02/23 00:54:29;;;;;;;25.70;11.10;;;;;;;-0.40;98.07;100744.55;219455;1271;139369;-90
2023/02/23 00:59:30;;;;;;;25.20;10.70;;;;;;;-0.43;98.38;100740.48;218862;1269;138993;-89
2023/02/23 01:04:30;;;;;;;21.10;9.70;;;;;;;-0.45;98.11;100734.59;219483;1268;139129;-88
2023/02/23 01:09:32;;;;;;;24.60;11.00;;;;;;;-0.45;98.48;100735.29;218894;1268;139291;-90
2023/02/23 01:14:34;;;;;;;25.20;11.00;;;;;;;-0.47;98.39;100728.99;219335;1269;139143;-90
2023/02/23 01:19:35;;;;;;;25.40;10.40;;;;;;;-0.49;98.35;100733.89;218906;1271;139033;-88
2023/02/23 01:24:37;;;;;;;26.50;11.50;;;;;;;-0.53;98.23;100727.05;219372;1268;139294;-89
2023/02/23 01:29:37;;;;;;;23.30;9.40;;;;;;;-0.57;98.43;100721.16;219018;1271;139509;-89
2023/02/23 01:34:38;;;;;;;23.30;9.60;;;;;;;-0.56;98.77;100718.98;219720;1269;139247;-89
2023/02/23 01:39:38;;;;;;;24.10;10.30;;;;;;;-0.57;98.59;100713.02;220061;1271;138980;-90
2023/02/23 01:44:39;;;;;;;24.40;10.70;;;;;;;-0.58;98.73;100714.65;219453;1269;139501;-88
2023/02/23 01:49:40;;;;;;;26.20;11.80;;;;;;;-0.60;98.77;100707.22;219538;1268;138565;-87
2023/02/23 01:54:50;;;;;;;28.80;12.10;;;;;;;-0.61;98.93;100709.94;219343;1269;138942;-87
2023/02/23 01:59:51;;;;;;;26.40;12.00;;;;;;;-0.62;98.88;100705.09;218945;1271;139372;-90
2023/02/23 02:04:54;;;;;;;28.10;13.50;;;;;;;-0.64;98.80;100701.34;219445;1271;139849;-88
2023/02/23 02:15:16;;;;;;;30.40;12.80;;;;;;;-0.66;99.04;100695.37;219488;1270;139021;-89
2023/02/23 02:20:37;;;;;;;26.90;12.30;;;;;;;-0.66;99.11;100688.50;219034;1269;139272;-90
2023/02/23 02:26:02;;;;;;;27.10;12.60;;;;;;;-0.67;99.14;100680.58;219797;1267;97972;-89
2023/02/23 02:31:24;;;;;;;29.40;12.80;;;;;;;-0.68;99.15;100681.30;220025;1269;138537;-90
2023/02/23 02:36:44;;;;;;;28.90;12.10;;;;;;;-0.69;99.41;100675.58;219000;1268;139153;-88
2023/02/23 02:42:02;;;;;;;28.50;12.20;;;;;;;-0.70;99.56;100671.11;219472;1269;139517;-88
2023/02/23 02:47:11;;;;;;;27.40;11.90;;;;;;;-0.71;99.33;100674.21;218766;1268;138948;-89
2023/02/23 02:52:16;;;;;;;30.40;13.30;;;;;;;-0.72;99.70;100670.98;219283;1271;139228;-88
2023/02/23 02:57:19;;;;;;;32.00;13.70;;;;;;;-0.73;99.76;100659.50;218848;1271;139983;-88
2023/02/23 04:19:30;;;;;;;35.50;15.40;;;;;;;-0.71;100.00;100612.28;218877;1269;139186;-87
2023/02/23 04:24:30;;;;;;;28.60;13.70;;;;;;;-0.71;100.00;100613.84;219405;1272;139807;-87
2023/02/23 04:29:31;;;;;;;33.80;15.50;;;;;;;-0.71;100.00;100607.36;218933;1271;139229;-87
2023/02/23 04:34:32;;;;;;;35.00;15.10;;;;;;;-0.70;100.00;100601.39;219614;1269;139427;-88
2023/02/23 04:39:33;;;;;;;32.80;13.50;;;;;;;-0.69;100.00;100592.46;218800;1269;140110;-87
2023/02/23 04:44:33;;;;;;;39.70;18.00;;;;;;;-0.69;100.00;100584.04;219382;1269;140529;-87
2023/02/23 04:49:33;;;;;;;36.30;16.20;;;;;;;-0.69;100.00;100578.58;219093;1272;139537;-88
2023/02/23 04:54:38;;;;;;;33.60;15.60;;;;;;;-0.69;100.00;100579.00;219343;1268;139338;-89
2023/02/23 04:59:38;;;;;;;30.70;14.70;;;;;;;-0.69;100.00;100578.04;218857;1269;139436;-86
2023/02/23 05:04:39;;;;;;;32.50;15.70;;;;;;;-0.69;100.00;100575.71;219941;1268;139432;-88
2023/02/23 05:09:39;;;;;;;38.50;15.50;;;;;;;-0.70;100.00;100569.09;219209;1272;153454;-89
2023/02/23 05:14:40;;;;;;;39.40;16.80;;;;;;;-0.70;100.00;100566.88;219284;1272;319185;-88
2023/02/23 05:19:40;;;;;;;35.90;15.60;;;;;;;-0.71;100.00;100569.91;219027;1271;139207;-88
2023/02/23 05:24:41;;;;;;;35.20;15.40;;;;;;;-0.72;100.00;100563.06;219188;1268;139361;-87
2023/02/23 05:29:41;;;;;;;35.00;15.90;;;;;;;-0.72;100.00;100562.42;218682;1271;139808;-88
2023/02/23 05:34:42;;;;;;;36.70;16.30;;;;;;;-0.72;100.00;100558.20;219476;1270;139418;-89
2023/02/23 05:39:42;;;;;;;39.00;17.00;;;;;;;-0.71;100.00;100548.95;218968;1271;139636;-88
2023/02/23 05:44:43;;;;;;;37.90;15.50;;;;;;;-0.74;100.00;100543.39;219407;1271;139381;-88
2023/02/23 05:49:45;;;;;;;37.00;14.60;;;;;;;-0.73;100.00;100546.68;219114;1269;139134;-87
2023/02/23 05:54:45;;;;;;;35.60;15.60;;;;;;;-0.74;100.00;100547.96;220655;1271;139317;-88
2023/02/23 05:59:45;;;;;;;33.50;15.00;;;;;;;-0.74;100.00;100544.95;218704;1269;139711;-88
2023/02/23 06:04:46;;;;;;;34.20;16.10;;;;;;;-0.73;100.00;100541.81;219749;1268;139755;-89
2023/02/23 06:09:46;;;;;;;35.40;16.80;;;;;;;-0.74;100.00;100535.45;218862;1269;139292;-90
2023/02/23 06:14:47;;;;;;;32.70;15.90;;;;;;;-0.73;100.00;100529.19;219446;1274;139331;-90
2023/02/23 06:19:47;;;;;;;39.80;16.60;;;;;;;-0.72;100.00;100527.01;218975;1272;139238;-87
2023/02/23 06:24:48;;;;;;;34.70;16.20;;;;;;;-0.71;100.00;100526.83;219412;1273;139019;-88
2023/02/23 06:29:48;;;;;;;34.20;15.80;;;;;;;-0.70;100.00;100525.70;218914;1272;140150;-85
2023/02/23 06:34:49;;;;;;;41.00;17.70;;;;;;;-0.69;100.00;100534.10;219495;1268;139194;-86
2023/02/23 06:39:49;;;;;;;33.90;17.10;;;;;;;-0.66;100.00;100536.90;219125;1270;139417;-85
2023/02/23 06:44:50;;;;;;;34.60;16.30;;;;;;;-0.62;100.00;100545.00;220228;1273;139284;-85
2023/02/23 06:49:50;;;;;;;32.40;15.70;;;;;;;-0.57;100.00;100551.90;219160;1272;139306;-85
2023/02/23 06:54:50;;;;;;;33.10;15.30;;;;;;;-0.52;100.00;100550.73;219574;1269;139306;-84
2023/02/23 06:59:52;;;;;;;39.00;17.40;;;;;;;-0.47;100.00;100553.31;218906;1270;139468;-85
2023/02/23 07:04:52;;;;;;;35.70;16.80;;;;;;;-0.42;100.00;100549.11;219748;1272;139891;-84
2023/02/23 07:09:52;;;;;;;35.40;16.40;;;;;;;-0.36;100.00;100545.36;219095;1269;139928;-84
2023/02/23 07:14:53;;;;;;;37.80;17.80;;;;;;;-0.29;100.00;100539.23;219565;1271;139125;-84
2023/02/23 07:19:53;;;;;;;38.90;18.10;;;;;;;-0.23;100.00;100537.35;218957;1274;139356;-83
2023/02/23 07:24:53;;;;;;;50.00;19.10;;;;;;;-0.16;100.00;100535.05;219300;1272;139288;-83
2023/02/23 07:29:54;;;;;;;41.50;19.30;;;;;;;-0.09;100.00;100527.24;218901;1268;140367;-84
2023/02/23 07:34:54;;;;;;;37.20;18.20;;;;;;;0.00;100.00;100528.51;219938;1269;139151;-83
2023/02/23 07:39:54;;;;;;;33.30;16.20;;;;;;;0.06;100.00;100519.12;218954;1270;139103;-84
2023/02/23 07:44:55;;;;;;;44.50;20.70;;;;;;;0.18;100.00;100524.21;219474;1272;139272;-85
2023/02/23 07:50:01;;;;;;;39.40;18.70;;;;;;;0.27;100.00;100521.77;218943;1269;139492;-86
2023/02/23 07:55:01;;;;;;;35.20;17.50;;;;;;;0.39;100.00;100518.77;219486;1268;139579;-86
2023/02/23 08:00:03;;;;;;;40.00;17.70;;;;;;;0.51;100.00;100513.77;219017;1270;139466;-85
2023/02/23 08:05:04;;;;;;;39.70;19.00;;;;;;;0.64;100.00;100511.10;219719;1270;138927;-86
2023/02/23 08:10:05;;;;;;;33.70;17.30;;;;;;;0.78;100.00;100501.54;219165;1272;139258;-87
2023/02/23 08:15:07;;;;;;;39.40;18.40;;;;;;;0.94;100.00;100495.63;219592;1270;139441;-86
2023/02/23 08:20:08;;;;;;;42.90;20.50;;;;;;;1.11;100.00;100497.02;219102;1273;139100;-87
2023/02/23 08:25:09;;;;;;;43.00;21.10;;;;;;;1.25;100.00;100495.64;219695;1273;139402;-86
2023/02/23 08:30:10;;;;;;;35.40;18.20;;;;;;;1.42;100.00;100496.23;219615;1273;138571;-86
2023/02/23 08:35:11;;;;;;;37.70;18.40;;;;;;;1.62;100.00;100500.60;219591;1269;139360;-87
2023/02/23 08:40:14;;;;;;;40.00;19.60;;;;;;;1.80;100.00;100495.02;218913;1270;139309;-87
2023/02/23 08:45:14;;;;;;;44.00;21.20;;;;;;;1.94;100.00;100485.83;219490;1267;138960;-87
2023/02/23 08:50:15;;;;;;;42.90;21.90;;;;;;;2.15;100.00;100479.11;219095;1272;139029;-87
2023/02/23 08:55:17;;;;;;;39.60;19.10;;;;;;;2.42;100.00;100470.93;219731;1270;139239;-87
2023/02/23 09:00:18;;;;;;;38.40;20.00;;;;;;;2.64;100.00;100468.93;219190;1272;139876;-87
2023/02/23 09:05:19;;;;;;;41.60;20.40;;;;;;;2.91;99.93;100466.98;219658;1269;138819;-87
2023/02/23 09:10:19;;;;;;;40.20;20.00;;;;;;;3.27;99.70;100462.73;219142;1269;140259;-89
2023/02/23 09:15:20;;;;;;;37.10;20.60;;;;;;;3.58;99.29;100457.52;219533;1271;138781;-88
2023/02/23 09:20:25;;;;;;;41.70;21.80;;;;;;;3.90;98.72;100460.71;219882;1271;139144;-89
2023/02/23 09:25:28;;;;;;;39.00;20.60;;;;;;;4.31;97.94;100458.95;219774;1267;138861;-87
2023/02/23 09:30:28;;;;;;;42.00;20.00;;;;;;;4.74;97.59;100458.58;219286;1268;139462;-88
2023/02/23 09:35:29;;;;;;;40.30;21.00;;;;;;;5.13;95.30;100456.46;219654;1272;139259;-88
2023/02/23 09:40:42;;;;;;;41.20;20.70;;;;;;;5.42;94.75;100455.16;219183;1268;139109;-89
2023/02/23 09:45:49;;;;;;;34.30;18.80;;;;;;;5.81;93.95;100451.25;219573;1272;139920;-88
2023/02/23 09:50:55;;;;;;;41.60;22.60;;;;;;;6.27;93.14;100449.42;219156;1270;138990;-87
2023/02/23 09:55:58;;;;;;;44.50;24.20;;;;;;;6.83;92.23;100446.11;219170;1269;138997;-86
2023/02/23 10:01:24;;;;;;;35.10;19.70;;;;;;;7.39;91.25;100437.84;220254;1271;138474;-86
2023/02/23 10:06:25;;;;;;;42.90;20.70;;;;;;;7.65;86.93;100437.36;219207;1268;139665;-87
2023/02/23 10:11:35;;;;;;;36.40;20.00;;;;;;;7.77;86.75;100431.66;219882;1269;139153;-88
2023/02/23 10:17:07;;;;;;;39.60;21.00;;;;;;;8.02;86.14;100421.56;219589;1267;139171;-89
2023/02/23 10:22:10;;;;;;;34.80;18.80;;;;;;;8.11;84.38;100423.63;219763;1269;138643;-88
2023/02/23 10:27:17;;;;;;;40.90;21.90;;;;;;;8.32;84.04;100421.76;218939;1273;138989;-90
2023/02/23 10:32:38;;;;;;;38.50;22.10;;;;;;;8.33;82.02;100416.59;219671;1267;99168;-90
2023/02/23 10:37:39;;;;;;;34.50;21.00;;;;;;;8.53;81.91;100411.19;219320;1268;139163;-88
2023/02/23 10:42:39;;;;;;;39.30;20.70;;;;;;;8.52;81.24;100409.84;219933;1267;138929;-89
2023/02/23 10:47:40;;;;;;;38.70;20.90;;;;;;;8.66;80.81;100406.72;219345;1271;139498;-90
2023/02/23 10:52:45;;;;;;;36.20;20.50;;;;;;;8.82;80.28;100397.30;219740;1268;138835;-88
2023/02/23 10:57:46;;;;;;;36.30;21.90;;;;;;;8.74;79.11;100390.57;219351;1267;139417;-89
2023/02/23 11:02:47;;;;;;;39.00;20.70;;;;;;;8.77;79.81;100379.02;219553;1271;139132;-88
2023/02/23 11:07:47;;;;;;;33.70;20.20;;;;;;;8.87;79.27;100373.39;219636;1271;139574;-89
2023/02/23 11:12:48;;;;;;;40.20;22.20;;;;;;;8.86;78.66;100372.35;219434;1269;139670;-91
2023/02/23 11:18:20;;;;;;;38.10;21.70;;;;;;;8.80;77.92;100367.61;219093;1269;139060;-88
2023/02/23 11:23:51;;;;;;;35.70;22.10;;;;;;;8.75;78.14;100355.85;219537;1269;139398;-89
2023/02/23 11:28:57;;;;;;;37.90;22.80;;;;;;;8.61;77.89;100339.69;218984;1268;139214;-88
2023/02/23 11:33:58;;;;;;;37.20;21.10;;;;;;;8.58;77.63;100331.81;219355;1271;138763;-87
2023/02/23 11:39:03;;;;;;;41.90;21.80;;;;;;;8.59;78.62;100326.18;219147;1267;138835;-88
2023/02/23 11:44:05;;;;;;;34.80;20.70;;;;;;;8.70;78.53;100312.19;219618;1271;107736;-89
2023/02/23 11:49:11;;;;;;;36.80;20.90;;;;;;;8.67;77.98;100312.69;218997;1270;139266;-88
2023/02/23 11:54:40;;;;;;;34.30;21.80;;;;;;;8.55;78.02;100305.91;219555;1269;138700;-87
2023/02/23 11:59:43;;;;;;;37.40;20.70;;;;;;;8.49;78.48;100308.85;219366;1268;138641;-87
2023/02/23 12:04:46;;;;;;;37.40;20.60;;;;;;;8.30;78.18;100302.01;219768;1271;138907;-90
2023/02/23 12:10:01;;;;;;;41.30;23.10;;;;;;;8.18;78.59;100297.53;219021;1271;138991;-89
2023/02/23 12:15:10;;;;;;;35.40;19.80;;;;;;;8.10;79.18;100292.11;219838;1268;139274;-87
2023/02/23 12:20:20;;;;;;;39.20;20.50;;;;;;;8.25;79.60;100291.12;219617;1268;138487;-88
2023/02/23 12:25:32;;;;;;;39.00;21.60;;;;;;;8.40;79.48;100288.24;219619;1267;139217;-88
2023/02/23 12:30:45;;;;;;;43.10;22.20;;;;;;;8.48;79.31;100283.66;219029;1271;139852;-87
2023/02/23 12:35:54;;;;;;;38.50;21.80;;;;;;;8.37;79.23;100276.35;219461;1267;138765;-88
2023/02/23 12:41:03;;;;;;;37.10;21.80;;;;;;;8.46;79.87;100267.26;219021;1272;139422;-87
2023/02/23 12:46:11;;;;;;;37.30;21.90;;;;;;;8.61;80.08;100262.42;219119;1271;139296;-90
2023/02/23 12:51:37;;;;;;;43.30;20.70;;;;;;;8.75;79.91;100257.46;219250;1271;138880;-88
2023/02/23 12:56:57;;;;;;;39.60;21.70;;;;;;;8.85;79.95;100253.32;219470;1267;139256;-87
2023/02/23 13:02:01;;;;;;;38.80;20.90;;;;;;;8.94;79.83;100238.17;219639;1268;106552;-89
2023/02/23 13:07:21;;;;;;;36.50;21.60;;;;;;;8.93;79.79;100230.30;219124;1267;140301;-88
2023/02/23 13:12:30;;;;;;;38.90;20.80;;;;;;;8.90;79.52;100224.52;220028;1268;140666;-88
2023/02/23 13:17:46;;;;;;;43.40;23.10;;;;;;;8.88;79.98;100218.70;219215;1269;139315;-88
2023/02/23 13:23:12;;;;;;;40.50;21.70;;;;;;;8.90;79.93;100215.36;219638;1268;139049;-88
2023/02/23 13:28:58;;;;;;;40.60;22.20;;;;;;;8.96;80.42;100206.42;218897;1268;139275;-88
2023/02/23 13:34:01;;;;;;;43.60;23.80;;;;;;;8.97;80.06;100203.70;219638;1270;138621;-87
2023/02/23 13:39:19;;;;;;;40.20;21.00;;;;;;;9.00;80.01;100202.02;219420;1271;139165;-88
2023/02/23 13:44:34;;;;;;;46.20;25.60;;;;;;;8.98;80.12;100195.55;219937;1268;97943;-88
2023/02/23 13:49:45;;;;;;;41.50;23.50;;;;;;;9.05;80.50;100185.54;219234;1271;138393;-86
2023/02/23 13:54:56;;;;;;;47.10;26.00;;;;;;;9.14;80.51;100177.64;219759;1271;138464;-88
2023/02/23 13:59:57;;;;;;;44.30;23.40;;;;;;;9.17;80.75;100177.23;218972;1272;138973;-89
2023/02/23 14:05:16;;;;;;;49.50;25.30;;;;;;;9.19;80.76;100171.51;219955;1268;138655;-86
2023/02/23 14:10:21;;;;;;;51.60;24.10;;;;;;;9.21;80.78;100166.60;219039;1268;139018;-87
2023/02/23 14:15:47;;;;;;;43.60;24.00;;;;;;;9.25;80.62;100162.58;219553;1268;139166;-88
2023/02/23 14:21:00;;;;;;;48.70;25.10;;;;;;;9.17;80.59;100160.83;218985;1271;139512;-87
2023/02/23 14:26:28;;;;;;;47.10;23.60;;;;;;;9.17;81.28;100156.66;219024;1268;138646;-87
2023/02/23 14:31:30;;;;;;;38.80;22.50;;;;;;;9.19;81.22;100154.17;219480;1268;138808;-86
2023/02/23 14:36:35;;;;;;;42.40;23.90;;;;;;;9.15;81.63;100144.33;219000;1269;138711;-87
2023/02/23 14:41:53;;;;;;;45.50;24.20;;;;;;;9.14;81.73;100143.77;219344;1271;138949;-86
2023/02/23 14:47:03;;;;;;;89.10;47.80;;;;;;;9.10;81.92;100134.86;219049;1271;139150;-87
2023/02/23 14:52:07;;;;;;;57.10;30.50;;;;;;;9.07;82.19;100131.60;219543;1269;138633;-87
2023/02/23 14:57:35;;;;;;;51.20;27.80;;;;;;;8.99;82.29;100133.15;219063;1268;139257;-87
2023/02/23 15:02:35;;;;;;;48.80;26.80;;;;;;;8.98;82.76;100136.27;219790;1267;97957;-88
2023/02/23 15:07:38;;;;;;;48.80;25.20;;;;;;;8.98;82.96;100135.48;218897;1271;138695;-87
2023/02/23 15:12:39;;;;;;;39.20;22.40;;;;;;;9.00;83.34;100135.52;219402;1271;139361;-86
2023/02/23 15:17:43;;;;;;;43.50;23.60;;;;;;;9.00;83.25;100127.67;218909;1267;138832;-86
2023/02/23 15:22:47;;;;;;;47.30;24.00;;;;;;;9.03;83.48;100121.52;219327;1271;138862;-86
2023/02/23 15:27:50;;;;;;;50.80;28.00;;;;;;;9.03;83.43;100119.71;218754;1268;139184;-87
2023/02/23 15:33:11;;;;;;;41.30;24.50;;;;;;;9.03;83.63;100111.30;219462;1269;139247;-87
2023/02/23 15:38:18;;;;;;;47.20;24.90;;;;;;;9.03;83.69;100105.67;219418;1267;138539;-87
2023/02/23 15:43:19;;;;;;;44.40;24.00;;;;;;;9.02;83.76;100099.47;220179;1267;139864;-87
2023/02/23 15:48:23;;;;;;;47.30;24.70;;;;;;;9.03;84.15;100097.27;218885;1271;139202;-87
2023/02/23 15:53:39;;;;;;;50.40;25.80;;;;;;;8.99;84.03;100095.34;219354;1268;139272;-86
2023/02/23 15:58:47;;;;;;;49.40;26.40;;;;;;;8.92;84.26;100091.10;219303;1268;139662;-88
2023/02/23 16:04:18;;;;;;;52.70;28.50;;;;;;;8.87;84.47;100089.95;219462;1269;138855;-86
2023/02/23 16:09:22;;;;;;;51.70;26.50;;;;;;;8.81;84.61;100082.20;218877;1268;138738;-87
2023/02/23 16:14:23;;;;;;;48.30;26.20;;;;;;;8.79;85.05;100076.91;219653;1268;97937;-87
2023/02/23 16:19:27;;;;;;;44.40;24.80;;;;;;;8.77;85.78;100080.10;218912;1268;138332;-88
2023/02/23 16:24:28;;;;;;;47.20;26.80;;;;;;;8.73;86.92;100076.69;219331;1269;138584;-86
2023/02/23 16:29:43;;;;;;;50.00;28.00;;;;;;;8.66;87.52;100072.75;218879;1269;139141;-86
2023/02/23 16:34:49;;;;;;;51.20;26.90;;;;;;;8.56;88.48;100067.84;219763;1268;138867;-87
2023/02/23 16:39:50;;;;;;;;;;;;;;;8.45;89.14;100065.09;219026;1269;139506;-86
2023/02/23 16:44:51;;;;;;;60.40;33.70;;;;;;;8.36;90.02;100064.35;219610;1269;125369;-86
2023/02/23 16:49:51;;;;;;;58.80;31.10;;;;;;;8.33;90.09;100069.16;221514;1271;139195;-86
2023/02/23 16:54:51;;;;;;;55.60;30.40;;;;;;;8.28;90.49;100073.32;220683;1271;138295;-87
2023/02/23 16:59:53;;;;;;;60.20;32.30;;;;;;;8.23;90.85;100069.18;219640;1268;139202;-88
2023/02/23 17:04:57;;;;;;;57.00;31.50;;;;;;;8.19;91.54;100070.52;219836;1268;139708;-86
2023/02/23 17:09:58;;;;;;;64.70;34.70;;;;;;;8.16;91.97;100070.13;222172;1269;138835;-87
2023/02/23 17:14:58;;;;;;;63.60;33.50;;;;;;;8.11;92.31;100069.20;219387;1268;261830;-88
2023/02/23 17:19:59;;;;;;;60.60;33.00;;;;;;;8.02;92.79;100064.21;219106;1269;139025;-89
2023/02/23 17:25:01;;;;;;;80.00;39.80;;;;;;;7.98;92.67;100062.96;219617;1271;138985;-88
2023/02/23 17:30:03;;;;;;;75.50;40.60;;;;;;;7.92;92.77;100055.52;218908;1269;139454;-89
2023/02/23 17:35:04;;;;;;;84.00;43.10;;;;;;;7.88;93.05;100061.88;219420;1268;139572;-89
2023/02/23 17:40:10;;;;;;;72.20;39.60;;;;;;;7.82;93.86;100061.77;218995;1269;139949;-89
2023/02/23 17:45:11;;;;;;;69.40;37.80;;;;;;;7.75;93.73;100052.73;219766;1269;139164;-87
2023/02/23 17:50:11;;;;;;;70.00;38.70;;;;;;;7.72;94.12;100049.08;219539;1267;138645;-88
2023/02/23 17:55:11;;;;;;;76.40;40.50;;;;;;;7.69;94.62;100044.74;219837;1268;139160;-88
2023/02/23 18:00:14;;;;;;;78.30;42.90;;;;;;;7.66;95.08;100039.67;219057;1269;139031;-89
2023/02/23 18:05:15;;;;;;;93.20;53.20;;;;;;;7.63;95.60;100033.61;219848;1271;139717;-88
2023/02/23 18:10:15;;;;;;;82.30;45.70;;;;;;;7.61;96.19;100033.73;218990;1269;139511;-87
2023/02/23 18:15:17;;;;;;;80.60;44.60;;;;;;;7.59;96.55;100025.86;220025;1269;139400;-89
2023/02/23 18:20:17;;;;;;;75.70;43.90;;;;;;;7.55;97.05;100019.94;219562;1268;139404;-87
2023/02/23 18:25:24;;;;;;;72.80;42.50;;;;;;;7.52;97.30;100017.94;219633;1269;139530;-88
2023/02/23 18:30:25;;;;;;;80.10;42.60;;;;;;;7.50;97.58;100016.66;219642;1268;139265;-89
2023/02/23 18:35:26;;;;;;;74.90;43.40;;;;;;;7.49;97.80;100012.02;220078;1269;139379;-86
2023/02/23 18:40:26;;;;;;;72.20;42.80;;;;;;;7.49;98.18;100012.71;219412;1268;139393;-87
2023/02/23 18:45:27;;;;;;;73.80;40.20;;;;;;;7.48;98.76;100009.02;219816;1269;139062;-88
2023/02/23 18:50:27;;;;;;;81.50;45.70;;;;;;;7.47;99.53;100011.20;219542;1271;138881;-88
2023/02/23 18:55:28;;;;;;;93.60;49.10;;;;;;;7.46;99.97;100005.00;219838;1268;139447;-87
2023/02/23 19:00:32;;;;;;;83.80;45.70;;;;;;;7.45;100.00;100005.45;219467;1271;138923;-88
2023/02/23 19:05:35;;;;;;;93.50;49.20;;;;;;;7.43;100.00;99997.23;219804;1269;139838;-87
2023/02/23 19:10:35;;;;;;;87.40;47.90;;;;;;;7.44;100.00;99995.73;219181;1271;139420;-89
2023/02/23 19:15:36;;;;;;;96.20;51.20;;;;;;;7.42;100.00;99991.80;219723;1269;139015;-88
2023/02/23 19:20:36;;;;;;;121.60;58.00;;;;;;;7.40;100.00;99993.56;219662;1269;138667;-88
2023/02/23 19:25:36;;;;;;;109.10;58.30;;;;;;;7.39;100.00;99992.92;220136;1269;98088;-87
2023/02/23 19:30:38;;;;;;;108.90;56.50;;;;;;;7.37;100.00;99990.70;219491;1268;138836;-88
2023/02/23 19:35:40;;;;;;;94.70;51.20;;;;;;;7.36;100.00;99989.49;219847;1268;139839;-88
2023/02/23 19:40:41;;;;;;;95.30;51.40;;;;;;;7.32;100.00;99981.54;219300;1271;139463;-88
2023/02/23 19:45:44;;;;;;;98.40;51.60;;;;;;;7.33;100.00;99980.94;220044;1269;138617;-89
2023/02/23 19:50:47;;;;;;;92.90;51.40;;;;;;;7.32;100.00;99979.49;219616;1268;139352;-86
2023/02/23 19:55:47;;;;;;;105.20;53.20;;;;;;;7.32;100.00;99972.46;219892;1268;111927;-86
2023/02/23 20:00:47;;;;;;;107.20;54.70;;;;;;;7.32;100.00;99965.11;219398;1269;141080;-87
2023/02/23 20:05:48;;;;;;;95.40;51.20;;;;;;;7.30;100.00;99962.83;219656;1269;138944;-86
2023/02/23 20:10:49;;;;;;;96.10;53.90;;;;;;;7.29;100.00;99955.83;218917;1267;139432;-86
2023/02/23 20:16:02;;;;;;;102.70;53.60;;;;;;;7.28;100.00;99952.54;219669;1271;138845;-87
2023/02/23 20:21:21;;;;;;;97.40;51.10;;;;;;;7.27;100.00;99951.52;219250;1269;139083;-86
2023/02/23 20:26:26;;;;;;;101.90;55.50;;;;;;;7.25;100.00;99947.33;219463;1271;138872;-86
2023/02/23 20:31:29;;;;;;;97.60;52.00;;;;;;;7.24;100.00;99940.03;219968;1269;138663;-86
2023/02/23 20:36:31;;;;;;;102.00;54.20;;;;;;;7.23;100.00;99938.07;219303;1268;139079;-86
2023/02/23 20:41:31;;;;;;;106.90;55.20;;;;;;;7.21;100.00;99934.83;219686;1271;139276;-87
2023/02/23 20:46:32;;;;;;;103.70;55.60;;;;;;;7.21;100.00;99934.51;219184;1269;139345;-86
2023/02/23 20:51:32;;;;;;;99.80;54.40;;;;;;;7.21;100.00;99927.61;219746;1271;138809;-87
2023/02/23 20:56:33;;;;;;;94.20;52.10;;;;;;;7.19;100.00;99925.09;219265;1269;138775;-87
2023/02/23 21:01:33;;;;;;;103.30;53.10;;;;;;;7.18;100.00;99921.95;219877;1271;138521;-87
2023/02/23 21:06:34;;;;;;;97.80;52.90;;;;;;;7.17;100.00;99919.44;219175;1268;139456;-87
2023/02/23 21:11:34;;;;;;;97.60;52.40;;;;;;;7.18;100.00;99917.33;219745;1269;140012;-87
2023/02/23 21:16:40;;;;;;;97.10;51.00;;;;;;;7.18;100.00;99913.50;219359;1269;139045;-87
2023/02/23 21:21:44;;;;;;;104.00;56.40;;;;;;;7.18;100.00;99911.23;219807;1269;138889;-88
2023/02/23 21:26:44;;;;;;;99.60;51.90;;;;;;;7.19;100.00;99911.65;223064;1269;139083;-87
2023/02/23 21:31:45;;;;;;;89.70;50.20;;;;;;;7.20;100.00;99903.77;220038;1271;98057;-87
2023/02/23 21:36:46;;;;;;;96.00;50.70;;;;;;;7.22;100.00;99896.53;219343;1269;138472;-87
2023/02/23 21:41:47;;;;;;;101.90;51.80;;;;;;;7.25;100.00;99894.23;219829;1269;138631;-87
2023/02/23 21:46:49;;;;;;;91.90;49.70;;;;;;;7.26;100.00;99877.91;219399;1272;139336;-87
2023/02/23 21:51:49;;;;;;;92.30;50.40;;;;;;;7.26;100.00;99878.77;220357;1269;138166;-88
2023/02/23 21:56:50;;;;;;;91.20;49.50;;;;;;;7.28;100.00;99873.09;219343;1269;138885;-87
2023/02/23 22:01:50;;;;;;;88.00;46.40;;;;;;;7.28;100.00;99868.70;219812;1269;99217;-87
2023/02/23 22:06:51;;;;;;;90.00;48.10;;;;;;;7.30;100.00;99864.43;219238;1269;138919;-87
2023/02/23 22:11:51;;;;;;;102.60;50.20;;;;;;;7.31;100.00;99867.89;219686;1271;138701;-87
2023/02/23 22:16:51;;;;;;;96.70;48.80;;;;;;;7.31;100.00;99867.27;219166;1270;140082;-87
2023/02/23 22:21:52;;;;;;;96.40;50.50;;;;;;;7.32;100.00;99863.52;219851;1271;139572;-87
2023/02/23 22:26:55;;;;;;;100.80;48.80;;;;;;;7.33;100.00;99862.05;219036;1271;138940;-87
2023/02/23 22:31:56;;;;;;;96.40;49.50;;;;;;;7.35;100.00;99852.86;219684;1271;98157;-87
2023/02/23 22:36:56;;;;;;;94.40;48.10;;;;;;;7.35;100.00;99846.59;219622;1268;139025;-87
2023/02/23 22:41:56;;;;;;;94.50;47.20;;;;;;;7.35;100.00;99836.84;220147;1267;138857;-86
2023/02/23 22:46:57;;;;;;;98.90;49.40;;;;;;;7.37;100.00;99832.95;219943;1271;139231;-87
2023/02/23 22:51:57;;;;;;;86.40;46.50;;;;;;;7.37;100.00;99824.42;221788;1271;137785;-87
2023/02/23 22:56:58;;;;;;;86.80;46.20;;;;;;;7.38;100.00;99820.67;219378;1271;139233;-86
2023/02/23 23:01:58;;;;;;;85.50;44.40;;;;;;;7.39;100.00;99810.37;219717;1268;97993;-87
2023/02/23 23:06:58;;;;;;;82.40;42.70;;;;;;;7.39;100.00;99811.30;219060;1271;139219;-86
2023/02/23 23:11:59;;;;;;;87.30;43.00;;;;;;;7.39;100.00;99801.55;219532;1268;138561;-86
2023/02/23 23:17:00;;;;;;;80.80;42.80;;;;;;;7.39;100.00;99794.88;219090;1269;139732;-87
2023/02/23 23:22:00;;;;;;;77.80;42.80;;;;;;;7.39;100.00;99793.08;219563;1271;138719;-87
2023/02/23 23:27:07;;;;;;;77.10;39.50;;;;;;;7.38;100.00;99795.50;219261;1271;139339;-86
2023/02/23 23:32:07;;;;;;;;;;;;;;;7.39;100.00;99789.73;219992;1269;111120;-83
2023/02/23 23:37:07;;;;;;;79.30;39.80;;;;;;;7.38;100.00;99784.78;219392;1272;125257;-85
2023/02/23 23:42:08;;;;;;;74.40;40.00;;;;;;;7.37;100.00;99782.80;219922;1269;139230;-85
2023/02/23 23:47:10;;;;;;;70.40;36.80;;;;;;;7.38;100.00;99777.19;219530;1271;138970;-86
2023/02/23 23:52:16;;;;;;;66.10;35.10;;;;;;;7.36;100.00;99767.79;220112;1272;138735;-87
2023/02/23 23:57:17;;;;;;;66.70;35.80;;;;;;;7.36;100.00;99759.80;219436;1268;139338;-91
